x

Sentry Shoal (46131) Wave Buoy

3:00 - Mon 29th Jun 2015 All times are PDT. -7 hours from GMT.

  • Sig Wave height 0.3ft
  • Peak Period 2s
  • Wind
    9mph
  • Sea Temp 67°f
  • Aire Temp 71°f
  • Sea Pressure 1014.6mb
  • Sentry Shoal
  • Sentry Shoal

More Historic Weather Station data

Upgrade to MSW Pro to gain access to the past 30 days of data for over 8000 Wavebouys and Weather Stations around the globe.

Join Pro

Comparision Forecast

View Surf forecast
   
lun 06/29 3:00 0.3ft 2s 9
mph
1014.6mb 67f 71f
2:00 0.3ft 2s 9 11 mph 1014.7mb 67f 70f
1:00 0.3ft 2s 9 11 mph 1014.8mb 66f 70f
12:00 0.3ft 2s 11 13 mph 1014.9mb 66f 68f
11:00 0.3ft 2s 4 9 mph 1015mb 66f 68f
10:00 0.3ft 2s 7 9 mph 1014.6mb 65f 67f
9:00 0.3ft 2s 7 11 mph 1014.2mb 65f 69f
8:00 0.3ft 2s 7 9 mph 1013.9mb 64f 67f
7:00 0.3ft 2s 9
mph
1013.9mb 63f 66f
6:00 0.3ft 4s 7 9 mph 1013.6mb 61f 66f
5:00 0.3ft 4s 9
mph
1013.1mb 62f 64f
4:00 0.7ft 4s 7 9 mph 1013mb 62f 65f
3:00 0.7ft 4s 9 11 mph 1013.2mb 63f 67f
2:00 0.7ft 4s 9
mph
1013.2mb 63f 64f
1:00 1ft 4s 4
mph
1013.3mb 64f 63f
12:00 1ft 3s 4 7 mph 1013.3mb 63f 69f
dom 06/28 11:00 1.3ft 3s 11 13 mph 1013.1mb 64f 70f
10:00 1ft 3s 9 11 mph 1013.1mb 64f 70f
9:00 1ft 3s 11 13 mph 1012.9mb 66f 68f
8:00 1ft 2s 11 13 mph 1012.3mb 67f 68f
7:00 0.7ft 2s 11 13 mph 1012.1mb 68f 69f
6:00 0.3ft 2s 11
mph
1012.3mb 68f 70f
5:00 0.3ft 6s 7
mph
1012.4mb 69f 71f
4:00 0.3ft 3s 7
mph
1012.8mb 68f 71f
3:00 0.3ft 3s 7
mph
1013.2mb 69f 75f
2:00 0.3ft 2s 7
mph
1013.6mb 66f 73f
1:00 0.3ft 2s 2 4 mph 1014.1mb 66f 74f
12:00 0.3ft 2s 7 9 mph 1014.4mb 65f 72f
11:00 0.7ft 2s 11
mph
1014.7mb 64f 70f
10:00 0.7ft 2s 9 11 mph 1015.1mb 64f 67f
9:00 1ft 2s 11 13 mph 1015.2mb 65f 66f
8:00 1ft 2s 16 18 mph 1015.2mb 63f 65f
7:00 1ft 2s 13 16 mph 1015.2mb 63f 64f
6:00 1.3ft 2s 16 18 mph 1014.8mb 63f 65f
5:00 1.3ft 2s 16 18 mph 1014.4mb 64f 65f
4:00 1.3ft 3s 16 18 mph 1014.3mb 64f 65f
3:00 1.3ft 3s 13 16 mph 1014.4mb 64f 66f
2:00 1.6ft 3s 13 16 mph 1014.2mb 64f 67f
1:00 1.6ft 3s 18 20 mph 1014.2mb 64f 68f
12:00 1ft 3s 20 22 mph 1014mb 65f 69f
sáb 06/27 11:00 1ft 3s 11 13 mph 1014.2mb 65f 72f
10:00 1ft 2s 16 18 mph 1013.8mb 65f 72f
9:00 1ft 3s 18 20 mph 1013.2mb 66f 75f
8:00 1ft 3s 13
mph
1013.5mb 66f 74f
7:00 1.3ft 2s 13 16 mph 1013.5mb 66f 76f
6:00 0.3ft 2s 16 18 mph 1013.6mb 66f 76f
5:00 0.3ft 2s 11 13 mph 1014.2mb 66f 74f
4:00 0.3ft 2s 2 4 mph 1014.8mb 66f 74f
3:00 0.3ft 2s 9 11 mph 1015.2mb 66f 73f
2:00 0.7ft 2s 7 9 mph 1015.7mb 65f 70f
1:00 0.7ft 2s 9 11 mph 1016mb 64f 69f
12:00 0.7ft 3s 13 16 mph 1016.4mb 64f 68f
11:00 1ft 3s 11 13 mph 1016.7mb 64f 66f
10:00 1.3ft 3s 13
mph
1017.2mb 64f 65f
9:00 1.6ft 3s 13 18 mph 1017.5mb 63f 63f
8:00 2ft 3s 18 22 mph 1017.1mb 63f 62f
7:00 1.6ft 3s 18 22 mph 1017mb 64f 62f
6:00 1.6ft 3s 16 18 mph 1017mb 64f 62f
5:00 1.6ft 3s 18 22 mph 1016.4mb 64f 63f
4:00 1.6ft 3s 18 22 mph 1016.2mb 65f 64f
3:00 1.6ft 3s 18 22 mph 1016.3mb 65f 64f
2:00 1.6ft 3s 16 20 mph 1016.3mb 66f 65f
1:00 1.3ft 3s 16 18 mph 1016.2mb 65f 65f
12:00 1.3ft 3s 16 18 mph 1016mb 66f 66f
vie 06/26 11:00 1ft 3s 16 18 mph 1015.9mb 67f 68f
10:00 0.7ft 2s 13 16 mph 1015.5mb 66f 70f
9:00 0.3ft 2s 16 18 mph 1015.1mb 68f 74f
8:00  -  2s 4 7 mph 1015.3mb 70f 74f
7:00 0.3ft 2s 4 7 mph 1015.7mb 71f 74f
6:00  -  2s 2
mph
1016.2mb 68f 78f
5:00 0.3ft 2s 4
mph
1016.8mb 67f 74f
4:00 0.3ft 4s 2
mph
1017.6mb 69f 74f
3:00  -  2s 4
mph
1018.1mb 69f 71f
2:00 0.3ft 2s 4
mph
1019mb 69f 70f
1:00 0.3ft 2s 4 7 mph 1019.6mb 68f 69f
12:00 0.3ft 2s 7 9 mph 1020.2mb 66f 67f
11:00 0.7ft 2s 7 9 mph 1020.4mb 65f 66f
10:00 0.7ft 3s 9 11 mph 1020.6mb 65f 65f
9:00 1ft 3s 9 11 mph 1021mb 64f 64f
8:00 1ft 3s 11 13 mph 1021mb 64f 63f
7:00 1ft 3s 11 13 mph 1020.9mb 64f 63f
6:00 1ft 3s 13 16 mph 1020.6mb 64f 63f
5:00 1ft 3s 13 16 mph 1020.5mb 64f 63f
4:00 1ft 2s 13 16 mph 1020.3mb 64f 64f
3:00 0.7ft 2s 13 16 mph 1020.3mb 64f 65f
2:00 0.3ft 2s 11 13 mph 1020.2mb 65f 65f
1:00 0.3ft 2s 11 13 mph 1020mb 65f 66f
12:00 0.3ft 3s 9 11 mph 1019.9mb 65f 66f